Terminal Aerodrome Forecast
Issued by NWS

Current Version | Previous Version | Text Only | Print | Product List | Glossary On
Versions: 1 2 3 4 5 6 7 8 9 10 11 12 13 14 15 16 17 18 19 20 21 22 23 24 25 26 27 28
000
FTAK31 PAFA 232347
TAFASC
TAF
PASC 232347Z 2400/2424 34013KT 6SM -TSRA SCT020 BKN040CB
     FM240020 29008KT P6SM -SHRA OVC035
     FM240300 25008KT P6SM -SHRA OVC025
     FM241200 23012KT P6SM BKN100=

USA.gov is the U.S. government's official web portal to all federal, state and local government web resources and services.